createdAt,value
2018-04-26T00:02:03.424Z,9.10
2018-04-26T00:08:07.786Z,9.00
2018-04-26T00:14:12.128Z,9.00
2018-04-26T00:20:17.254Z,8.80
2018-04-26T00:26:21.636Z,8.80
2018-04-26T00:32:26.019Z,8.90
2018-04-26T00:38:30.475Z,8.90
2018-04-26T00:44:35.379Z,8.90
2018-04-26T00:50:40.157Z,8.90
2018-04-26T00:56:44.560Z,9.00
2018-04-26T01:02:49.173Z,9.00
2018-04-26T01:08:53.530Z,9.10
2018-04-26T01:14:58.011Z,9.10
2018-04-26T01:21:02.387Z,9.10
2018-04-26T01:27:06.882Z,9.10
2018-04-26T01:33:12.040Z,9.10
2018-04-26T01:39:16.411Z,9.10
2018-04-26T01:45:20.864Z,9.10
2018-04-26T01:51:25.316Z,9.10
2018-04-26T01:57:29.696Z,9.10
2018-04-26T02:03:34.301Z,9.10
2018-04-26T02:09:38.949Z,9.10
2018-04-26T02:15:44.115Z,9.20
2018-04-26T02:21:48.462Z,9.10
2018-04-26T02:27:52.833Z,9.20
2018-04-26T02:33:57.333Z,9.10
2018-04-26T02:40:02.651Z,9.00
2018-04-26T02:46:07.106Z,9.00
2018-04-26T02:52:11.489Z,8.80
2018-04-26T02:58:15.837Z,8.60
2018-04-26T03:04:20.229Z,8.50
2018-04-26T03:10:24.594Z,8.50
2018-04-26T03:16:28.971Z,8.50
2018-04-26T03:22:33.980Z,8.50
2018-04-26T03:28:38.479Z,8.50
2018-04-26T03:34:43.621Z,8.40
2018-04-26T03:40:47.971Z,8.30
2018-04-26T03:46:52.335Z,8.20
2018-04-26T03:52:56.715Z,8.20
2018-04-26T03:59:01.067Z,8.10
2018-04-26T04:05:23.236Z,8.20
2018-04-26T04:11:28.484Z,8.20
2018-04-26T04:17:32.866Z,8.20
2018-04-26T04:23:38.040Z,8.00
2018-04-26T04:29:42.398Z,8.00
2018-04-26T04:35:47.547Z,8.10
2018-04-26T04:41:51.904Z,8.10
2018-04-26T04:47:56.254Z,8.20
2018-04-26T04:54:00.626Z,8.40
2018-04-26T05:00:05.100Z,8.40
2018-04-26T05:06:10.319Z,8.50
2018-04-26T05:12:14.659Z,8.50
2018-04-26T05:18:19.783Z,8.70
2018-04-26T05:24:24.149Z,8.70
2018-04-26T05:30:28.488Z,8.90
2018-04-26T05:36:33.021Z,8.90
2018-04-26T05:42:37.480Z,8.90
2018-04-26T05:48:41.841Z,8.80
2018-04-26T05:54:47.174Z,8.50
2018-04-26T06:00:51.554Z,8.40
2018-04-26T06:06:55.972Z,8.10
2018-04-26T06:13:01.152Z,8.00
2018-04-26T06:19:06.403Z,8.00
2018-04-26T06:25:10.911Z,8.00
2018-04-26T06:31:15.167Z,7.90
2018-04-26T06:37:19.502Z,7.90
2018-04-26T06:43:24.636Z,8.20
2018-04-26T06:49:29.002Z,8.20
2018-04-26T06:55:33.673Z,8.40
2018-04-26T07:01:38.079Z,8.10
2018-04-26T07:07:42.543Z,7.90
2018-04-26T07:13:46.892Z,7.80
2018-04-26T07:19:51.270Z,7.60
2018-04-26T07:25:55.620Z,7.60
2018-04-26T07:32:00.741Z,8.00
2018-04-26T07:38:05.927Z,8.00
2018-04-26T07:44:11.478Z,8.40
2018-04-26T07:50:15.886Z,8.70
2018-04-26T07:56:21.016Z,9.10
2018-04-26T08:02:25.978Z,9.10
2018-04-26T08:08:30.332Z,9.00
2018-04-26T08:14:35.750Z,9.50
2018-04-26T08:20:40.109Z,9.50
2018-04-26T08:26:45.264Z,10.30
2018-04-26T08:32:49.633Z,10.30
2018-04-26T08:38:54.004Z,10.20
2018-04-26T08:44:58.369Z,10.20
2018-04-26T08:51:02.758Z,10.20
2018-04-26T08:57:07.127Z,10.00
2018-04-26T09:03:11.519Z,10.00
2018-04-26T09:09:15.870Z,9.90
2018-04-26T09:15:20.233Z,10.00
2018-04-26T09:21:24.705Z,10.10
2018-04-26T09:27:29.088Z,10.00
2018-04-26T09:33:33.869Z,10.10
2018-04-26T09:39:38.349Z,11.30
2018-04-26T09:45:42.756Z,11.40
2018-04-26T09:51:47.113Z,11.10
2018-04-26T09:57:51.504Z,11.10
2018-04-26T10:03:55.893Z,10.70
2018-04-26T10:10:00.280Z,10.80
2018-04-26T10:16:04.906Z,11.50
2018-04-26T10:22:09.438Z,11.70
2018-04-26T10:28:13.820Z,12.10
2018-04-26T10:34:18.186Z,12.40
2018-04-26T10:40:22.589Z,12.10
2018-04-26T10:46:26.976Z,11.50
2018-04-26T10:52:31.355Z,12.50
2018-04-26T10:58:35.773Z,12.40
2018-04-26T11:04:40.152Z,13.20
2018-04-26T11:10:44.545Z,15.20
2018-04-26T11:16:49.688Z,15.80
2018-04-26T11:22:54.081Z,15.80
2018-04-26T11:28:59.263Z,14.80
2018-04-26T11:35:04.479Z,14.70
2018-04-26T11:41:08.848Z,14.00
2018-04-26T11:47:13.204Z,13.70
2018-04-26T11:53:17.574Z,13.80
2018-04-26T11:59:21.961Z,14.70
2018-04-26T12:05:26.340Z,15.90
2018-04-26T12:11:30.753Z,17.60
2018-04-26T12:17:35.920Z,18.00
2018-04-26T12:23:40.347Z,17.90
2018-04-26T12:29:44.830Z,17.70
2018-04-26T12:35:49.230Z,18.90
2018-04-26T12:41:53.871Z,13.20
2018-04-26T12:47:58.230Z,10.00
2018-04-26T12:54:03.561Z,9.40
2018-04-26T13:00:07.933Z,9.30
2018-04-26T13:06:12.405Z,9.90
2018-04-26T13:12:16.805Z,10.50
2018-04-26T13:18:21.255Z,10.40
2018-04-26T13:24:25.605Z,10.40
2018-04-26T13:30:30.803Z,10.40
2018-04-26T13:36:36.088Z,10.70
2018-04-26T13:42:41.220Z,11.40
2018-04-26T13:48:45.595Z,11.40
2018-04-26T13:54:49.954Z,11.20
2018-04-26T14:00:54.364Z,10.80
2018-04-26T14:06:58.735Z,10.60
2018-04-26T14:13:03.850Z,10.50
2018-04-26T14:19:08.332Z,10.40
2018-04-26T14:25:12.742Z,10.60
2018-04-26T14:31:17.118Z,11.00
2018-04-26T14:37:22.297Z,11.50
2018-04-26T14:43:26.714Z,11.50
2018-04-26T14:49:31.189Z,13.00
2018-04-26T14:55:35.568Z,14.80
2018-04-26T15:01:40.014Z,16.80
2018-04-26T15:07:44.395Z,15.60
2018-04-26T15:13:48.786Z,15.70
2018-04-26T15:19:53.173Z,15.00
2018-04-26T15:25:57.582Z,13.70
2018-04-26T15:32:02.924Z,12.50
2018-04-26T15:38:07.364Z,10.90
2018-04-26T15:44:11.742Z,9.50
2018-04-26T15:57:24.147Z,9.40
2018-04-26T16:03:47.496Z,9.40
2018-04-26T16:10:11.529Z,9.60
2018-04-26T16:16:39.345Z,9.50
2018-04-26T16:30:02.458Z,10.50
2018-04-26T16:42:45.964Z,12.20
2018-04-26T16:48:51.859Z,14.80
2018-04-26T16:54:57.038Z,14.50
2018-04-26T17:01:02.250Z,14.40
2018-04-26T17:07:06.727Z,14.70
2018-04-26T17:13:11.875Z,11.90
2018-04-26T17:19:16.249Z,11.90
2018-04-26T17:25:20.608Z,11.30
2018-04-26T17:31:25.082Z,10.80
2018-04-26T17:37:29.448Z,9.30
2018-04-26T17:43:33.807Z,8.90
2018-04-26T17:49:38.948Z,10.80
2018-04-26T17:55:43.324Z,10.70
2018-04-26T18:01:47.705Z,11.30
2018-04-26T18:07:52.091Z,11.90
2018-04-26T18:13:56.453Z,12.00
2018-04-26T18:20:08.150Z,11.70
2018-04-26T18:26:05.232Z,10.80
2018-04-26T18:32:10.435Z,9.70
2018-04-26T18:38:15.660Z,9.30
2018-04-26T18:44:20.014Z,9.20
2018-04-26T18:50:25.172Z,8.40
2018-04-26T18:56:29.512Z,8.40
2018-04-26T19:02:34.158Z,8.20
2018-04-26T19:08:38.599Z,8.00
2018-04-26T19:14:43.026Z,7.90
2018-04-26T19:20:47.458Z,7.90
2018-04-26T19:26:51.867Z,7.80
2018-04-26T19:32:57.039Z,7.70
2018-04-26T19:39:02.153Z,7.70
2018-04-26T19:45:07.294Z,7.70
2018-04-26T19:51:11.735Z,7.60
2018-04-26T19:57:16.091Z,7.60
2018-04-26T20:03:21.231Z,7.60
2018-04-26T20:09:25.756Z,7.60
2018-04-26T20:15:30.905Z,7.40
2018-04-26T20:21:35.590Z,7.40
2018-04-26T20:27:40.005Z,7.30
2018-04-26T20:33:45.222Z,7.20
2018-04-26T20:39:49.595Z,7.20
2018-04-26T20:45:53.980Z,7.10
2018-04-26T20:51:58.392Z,7.10
2018-04-26T20:58:02.855Z,7.10
2018-04-26T21:04:07.443Z,7.10
2018-04-26T21:10:11.890Z,7.10
2018-04-26T21:16:16.308Z,7.10
2018-04-26T21:22:20.654Z,7.00
2018-04-26T21:28:25.017Z,6.90
2018-04-26T21:34:29.415Z,6.70
2018-04-26T21:40:34.235Z,6.70
2018-04-26T21:46:39.406Z,6.80
2018-04-26T21:52:49.205Z,6.80
2018-04-26T21:58:58.960Z,6.90
2018-04-26T22:05:08.912Z,7.00
2018-04-26T22:11:13.295Z,7.10
2018-04-26T22:17:17.640Z,7.30
2018-04-26T22:23:21.997Z,7.40
2018-04-26T22:29:26.388Z,7.60
2018-04-26T22:35:30.769Z,7.70
2018-04-26T22:41:35.342Z,7.90
2018-04-26T22:47:39.689Z,7.90
2018-04-26T22:53:44.035Z,7.80
2018-04-26T22:59:48.419Z,7.70
2018-04-26T23:05:52.788Z,7.70
2018-04-26T23:11:57.159Z,7.60
2018-04-26T23:18:01.625Z,7.50
2018-04-26T23:24:06.346Z,7.30
2018-04-26T23:30:10.727Z,7.10
2018-04-26T23:36:15.106Z,6.80
2018-04-26T23:42:19.490Z,6.80
2018-04-26T23:48:23.962Z,6.70
2018-04-26T23:54:28.313Z,6.50
